createdAt,value
2023-02-27T00:00:19.996Z,81.03
2023-02-27T00:02:51.926Z,81.37
2023-02-27T00:05:22.411Z,84.70
2023-02-27T00:07:50.113Z,83.71
2023-02-27T00:10:18.527Z,81.66
2023-02-27T00:12:46.173Z,82.29
2023-02-27T00:15:15.068Z,81.71
2023-02-27T00:17:43.099Z,80.30
2023-02-27T00:20:16.157Z,83.20
2023-02-27T00:22:44.969Z,82.27
2023-02-27T00:25:13.623Z,83.44
2023-02-27T00:27:41.557Z,84.57
2023-02-27T00:30:11.682Z,83.44
2023-02-27T00:32:39.447Z,84.35
2023-02-27T00:35:09.165Z,85.43
2023-02-27T00:37:38.764Z,85.58
2023-02-27T00:40:07.688Z,85.23
2023-02-27T00:42:35.743Z,86.01
2023-02-27T00:45:03.945Z,85.13
2023-02-27T00:47:31.571Z,84.69
2023-02-27T00:49:59.186Z,84.12
2023-02-27T00:52:27.460Z,85.02
2023-02-27T00:54:56.411Z,84.62
2023-02-27T00:57:24.371Z,85.02
2023-02-27T00:59:51.996Z,83.83
2023-02-27T01:02:19.931Z,82.70
2023-02-27T01:04:47.517Z,84.06
2023-02-27T01:07:15.228Z,85.03
2023-02-27T01:09:42.874Z,83.90
2023-02-27T01:12:11.886Z,85.41
2023-02-27T01:14:39.490Z,85.76
2023-02-27T01:17:07.104Z,83.62
2023-02-27T01:19:34.699Z,84.07
2023-02-27T01:22:02.371Z,84.61
2023-02-27T01:24:30.014Z,83.43
2023-02-27T01:26:57.623Z,85.00
2023-02-27T01:29:26.963Z,84.75
2023-02-27T01:31:54.644Z,85.15
2023-02-27T01:34:22.304Z,84.68
2023-02-27T01:36:49.952Z,84.82
2023-02-27T01:39:17.613Z,84.24
2023-02-27T01:41:45.423Z,85.86
2023-02-27T01:44:14.999Z,87.29
2023-02-27T01:46:44.257Z,87.43
2023-02-27T01:49:16.637Z,86.28
2023-02-27T01:51:48.721Z,85.61
2023-02-27T01:54:19.835Z,84.63
2023-02-27T01:56:49.016Z,81.72
2023-02-27T01:59:17.433Z,84.11
2023-02-27T02:01:46.832Z,85.14
2023-02-27T02:04:20.723Z,85.48
2023-02-27T02:06:51.611Z,85.38
2023-02-27T02:09:21.013Z,85.14
2023-02-27T02:11:50.005Z,85.89
2023-02-27T02:14:17.702Z,85.11
2023-02-27T02:17:00.049Z,84.40
2023-02-27T02:19:56.888Z,84.55
2023-02-27T02:22:59.900Z,85.42
2023-02-27T02:26:05.906Z,85.21
2023-02-27T02:29:11.163Z,84.92
2023-02-27T02:32:07.081Z,83.66
2023-02-27T02:35:07.255Z,84.51
2023-02-27T02:38:17.328Z,84.02
2023-02-27T02:40:53.452Z,83.03
2023-02-27T02:43:27.705Z,82.88
2023-02-27T02:46:03.591Z,80.42
2023-02-27T02:48:37.498Z,81.42
2023-02-27T02:51:12.934Z,81.97
2023-02-27T02:53:48.573Z,83.07
2023-02-27T02:56:23.612Z,83.20
2023-02-27T02:59:00.590Z,84.20
2023-02-27T03:01:34.477Z,81.81
2023-02-27T03:04:08.179Z,83.55
2023-02-27T03:06:39.756Z,82.89
2023-02-27T03:09:13.106Z,83.02
2023-02-27T03:11:46.855Z,82.32
2023-02-27T03:14:20.181Z,83.55
2023-02-27T03:16:51.206Z,83.67
2023-02-27T03:19:22.164Z,84.12
2023-02-27T03:21:54.484Z,86.28
2023-02-27T03:24:26.813Z,85.93
2023-02-27T03:27:03.267Z,85.29
2023-02-27T03:29:39.700Z,84.76
2023-02-27T03:32:14.265Z,83.38
2023-02-27T03:34:43.488Z,82.77
2023-02-27T03:37:22.371Z,82.31
2023-02-27T03:39:52.669Z,84.52
2023-02-27T03:42:30.179Z,85.75
2023-02-27T03:45:05.889Z,86.32
2023-02-27T03:47:35.283Z,86.22
2023-02-27T03:50:02.984Z,85.08
2023-02-27T03:52:32.436Z,86.24
2023-02-27T03:55:05.184Z,84.79
2023-02-27T03:57:37.674Z,85.27
2023-02-27T04:00:07.559Z,85.94
2023-02-27T04:02:38.046Z,84.93
2023-02-27T04:05:06.094Z,83.55
2023-02-27T04:07:38.699Z,81.74
2023-02-27T04:10:17.658Z,82.54
2023-02-27T04:13:12.888Z,83.25
2023-02-27T04:16:00.664Z,81.90
2023-02-27T04:18:44.968Z,79.95
2023-02-27T04:21:18.134Z,81.42
2023-02-27T04:23:56.264Z,81.79
2023-02-27T04:26:31.523Z,81.30
2023-02-27T04:29:07.016Z,79.86
2023-02-27T04:31:46.723Z,80.89
2023-02-27T04:34:21.754Z,82.59
2023-02-27T04:36:58.058Z,81.68
2023-02-27T04:39:28.829Z,81.74
2023-02-27T04:42:02.301Z,80.60
2023-02-27T04:44:36.126Z,80.73
2023-02-27T04:47:08.308Z,80.32
2023-02-27T04:49:38.671Z,81.73
2023-02-27T04:52:11.404Z,81.37
2023-02-27T04:54:43.250Z,80.94
2023-02-27T04:57:16.569Z,81.08
2023-02-27T04:59:48.608Z,81.15
2023-02-27T05:02:24.654Z,80.27
2023-02-27T05:04:56.743Z,82.28
2023-02-27T05:07:27.634Z,82.11
2023-02-27T05:09:59.897Z,81.45
2023-02-27T05:12:34.761Z,82.60
2023-02-27T05:15:10.019Z,84.28
2023-02-27T05:17:43.520Z,84.24
2023-02-27T05:20:12.725Z,81.64
2023-02-27T05:22:48.497Z,80.31
2023-02-27T05:25:24.766Z,79.36
2023-02-27T05:27:57.819Z,81.03
2023-02-27T05:30:33.120Z,83.47
2023-02-27T05:33:06.965Z,82.81
2023-02-27T05:35:39.273Z,83.59
2023-02-27T05:38:12.711Z,81.99
2023-02-27T05:40:45.399Z,82.52
2023-02-27T05:43:18.970Z,83.47
2023-02-27T05:45:51.224Z,83.40
2023-02-27T05:48:23.962Z,84.48
2023-02-27T05:50:53.892Z,81.70
2023-02-27T05:53:23.160Z,83.15
2023-02-27T05:55:53.644Z,82.29
2023-02-27T05:58:25.839Z,82.93
2023-02-27T06:00:58.501Z,82.01
2023-02-27T06:03:26.645Z,81.45
2023-02-27T06:05:55.810Z,81.31
2023-02-27T06:08:24.932Z,80.76
2023-02-27T06:10:52.688Z,79.36
2023-02-27T06:13:20.312Z,81.87
2023-02-27T06:15:47.928Z,84.10
2023-02-27T06:18:18.004Z,84.44
2023-02-27T06:20:46.510Z,84.42
2023-02-27T06:23:14.384Z,83.33
2023-02-27T06:25:42.442Z,83.31
2023-02-27T06:28:10.943Z,83.02
2023-02-27T06:30:39.282Z,81.07
2023-02-27T06:33:07.008Z,81.17
2023-02-27T06:35:36.109Z,82.26
2023-02-27T06:38:04.976Z,83.03
2023-02-27T06:40:32.563Z,84.67
2023-02-27T06:43:00.168Z,82.59
2023-02-27T06:45:27.769Z,81.16
2023-02-27T06:47:55.350Z,80.88
2023-02-27T06:50:22.979Z,81.58
2023-02-27T06:52:52.027Z,82.90
2023-02-27T06:55:20.937Z,84.90
2023-02-27T06:57:48.928Z,83.38
2023-02-27T07:00:17.997Z,81.58
2023-02-27T07:02:45.618Z,81.51
2023-02-27T07:05:13.214Z,81.23
2023-02-27T07:07:41.036Z,78.41
2023-02-27T07:10:12.711Z,74.43
2023-02-27T07:12:40.587Z,72.63
2023-02-27T07:15:09.083Z,66.27
2023-02-27T07:17:36.791Z,66.79
2023-02-27T07:20:05.395Z,63.32
2023-02-27T07:22:33.041Z,64.71
2023-02-27T07:25:00.662Z,62.65
2023-02-27T07:27:29.712Z,62.56
2023-02-27T07:29:57.333Z,58.77
2023-02-27T07:32:24.919Z,56.93
2023-02-27T07:34:52.489Z,57.34
2023-02-27T07:37:20.651Z,57.18
2023-02-27T07:39:48.226Z,57.16
2023-02-27T07:42:16.629Z,61.89
2023-02-27T07:44:45.607Z,64.14
2023-02-27T07:47:13.224Z,59.66
2023-02-27T07:49:40.812Z,59.45
2023-02-27T07:52:08.404Z,57.50
2023-02-27T07:54:37.670Z,57.41
2023-02-27T07:57:05.546Z,58.06
2023-02-27T07:59:33.568Z,55.16
2023-02-27T08:02:02.541Z,53.46
2023-02-27T08:04:30.222Z,50.00
2023-02-27T08:06:57.932Z,47.54
2023-02-27T08:09:25.553Z,45.98
2023-02-27T08:11:53.143Z,46.81
2023-02-27T08:14:20.772Z,44.25
2023-02-27T08:16:48.411Z,44.22
2023-02-27T08:19:17.364Z,42.79
2023-02-27T08:21:44.952Z,41.53
2023-02-27T08:24:12.556Z,44.15
2023-02-27T08:26:40.124Z,39.57
2023-02-27T08:29:07.737Z,37.80
2023-02-27T08:31:35.517Z,38.34
2023-02-27T08:34:10.111Z,42.52
2023-02-27T08:36:40.395Z,38.72
2023-02-27T08:39:08.974Z,41.63
2023-02-27T08:41:36.748Z,38.28
2023-02-27T08:44:04.893Z,38.75
2023-02-27T08:46:32.515Z,39.94
2023-02-27T08:49:00.162Z,43.20
2023-02-27T08:51:28.135Z,41.22
2023-02-27T08:53:59.024Z,39.30
2023-02-27T08:56:27.316Z,38.34
2023-02-27T08:58:55.572Z,37.37
2023-02-27T09:01:23.819Z,36.65
2023-02-27T09:03:51.511Z,36.55
2023-02-27T09:06:19.112Z,39.45
2023-02-27T09:08:46.720Z,38.50
2023-02-27T09:11:15.663Z,43.14
2023-02-27T09:13:43.259Z,46.47
2023-02-27T09:16:11.257Z,48.08
2023-02-27T09:18:38.893Z,48.49
2023-02-27T09:21:06.952Z,55.83
2023-02-27T09:23:34.591Z,61.55
2023-02-27T09:26:02.170Z,65.89
2023-02-27T09:28:31.114Z,67.05
2023-02-27T09:31:01.865Z,71.40
2023-02-27T09:33:29.711Z,66.22
2023-02-27T09:35:57.358Z,66.18
2023-02-27T09:38:24.975Z,70.68
2023-02-27T09:40:55.044Z,70.65
2023-02-27T09:43:28.036Z,70.28
2023-02-27T09:45:58.729Z,69.99
2023-02-27T09:48:32.203Z,66.37
2023-02-27T09:51:00.832Z,64.35
2023-02-27T09:53:31.406Z,65.96
2023-02-27T09:56:07.192Z,65.17
2023-02-27T09:58:46.314Z,64.40
2023-02-27T10:01:24.132Z,62.78
2023-02-27T10:04:19.667Z,61.55
2023-02-27T10:06:52.036Z,62.43
2023-02-27T10:09:32.127Z,61.88
2023-02-27T10:12:12.491Z,63.34
2023-02-27T10:14:44.399Z,62.64
2023-02-27T10:17:19.413Z,60.48
2023-02-27T10:19:49.286Z,61.70
2023-02-27T10:22:24.515Z,59.66
2023-02-27T10:24:58.820Z,59.89
2023-02-27T10:27:26.801Z,59.06
2023-02-27T10:30:01.041Z,58.28
2023-02-27T10:32:33.799Z,58.95
2023-02-27T10:35:09.879Z,56.73
2023-02-27T10:37:40.990Z,57.99
2023-02-27T10:40:16.079Z,56.48
2023-02-27T10:42:45.103Z,54.99
2023-02-27T10:45:15.696Z,55.49
2023-02-27T10:47:45.249Z,54.75
2023-02-27T10:50:28.305Z,55.06
2023-02-27T10:52:58.265Z,52.95
2023-02-27T10:55:28.675Z,54.31
2023-02-27T10:57:58.642Z,55.32
2023-02-27T11:00:39.410Z,55.47
2023-02-27T11:03:19.580Z,56.21
2023-02-27T11:05:56.625Z,55.35
2023-02-27T11:08:26.298Z,55.57
2023-02-27T11:10:56.965Z,54.20
2023-02-27T11:13:26.982Z,53.66
2023-02-27T11:16:10.256Z,52.93
2023-02-27T11:18:41.018Z,54.60
2023-02-27T11:21:22.654Z,55.58
2023-02-27T11:23:53.174Z,52.81
2023-02-27T11:26:24.427Z,52.53
2023-02-27T11:29:07.197Z,52.42
2023-02-27T11:31:36.389Z,52.78
2023-02-27T11:34:08.239Z,51.67
2023-02-27T11:36:40.600Z,54.39
2023-02-27T11:39:08.535Z,51.39
2023-02-27T11:41:37.312Z,50.19
2023-02-27T11:44:05.969Z,50.12
2023-02-27T11:46:47.588Z,52.21
2023-02-27T11:49:31.150Z,51.05
2023-02-27T11:52:08.343Z,50.15
2023-02-27T11:54:40.637Z,48.57
2023-02-27T11:57:15.923Z,49.95
2023-02-27T11:59:49.032Z,53.10
2023-02-27T12:02:23.387Z,53.53
2023-02-27T12:04:56.189Z,53.23
2023-02-27T12:07:28.913Z,53.60
2023-02-27T12:10:04.555Z,54.80
2023-02-27T12:12:37.824Z,53.24
2023-02-27T12:15:16.151Z,52.38
2023-02-27T12:17:47.546Z,52.56
2023-02-27T12:20:29.440Z,53.93
2023-02-27T12:22:57.168Z,52.50
2023-02-27T12:25:36.025Z,54.02
2023-02-27T12:28:10.191Z,55.52
2023-02-27T12:30:43.554Z,53.77
2023-02-27T12:33:18.577Z,53.10
2023-02-27T12:35:55.587Z,52.30
2023-02-27T12:38:24.574Z,53.94
2023-02-27T12:41:06.039Z,52.57
2023-02-27T12:43:45.642Z,54.60
2023-02-27T12:46:33.043Z,53.48
2023-02-27T12:49:15.698Z,54.18
2023-02-27T12:51:56.120Z,55.52
2023-02-27T12:54:34.743Z,54.05
2023-02-27T12:57:16.359Z,54.39
2023-02-27T13:00:06.376Z,53.83
2023-02-27T13:02:46.942Z,54.66
2023-02-27T13:05:25.554Z,52.92
2023-02-27T13:08:01.007Z,52.94
2023-02-27T13:10:35.897Z,52.75
2023-02-27T13:13:09.749Z,52.29
2023-02-27T13:15:43.321Z,53.45
2023-02-27T13:18:29.095Z,53.04
2023-02-27T13:21:03.286Z,50.79
2023-02-27T13:23:37.607Z,51.76
2023-02-27T13:26:11.519Z,53.65
2023-02-27T13:28:40.294Z,52.81
2023-02-27T13:31:11.015Z,52.42
2023-02-27T13:33:47.687Z,53.06
2023-02-27T13:36:21.874Z,54.63
2023-02-27T13:38:55.199Z,54.33
2023-02-27T13:41:39.516Z,52.79
2023-02-27T13:44:40.291Z,51.87
2023-02-27T13:47:40.344Z,53.53
2023-02-27T13:50:41.180Z,53.19
2023-02-27T13:53:18.654Z,51.07
2023-02-27T13:55:47.796Z,51.72
2023-02-27T13:58:19.183Z,55.55
2023-02-27T14:00:57.785Z,55.53
2023-02-27T14:03:28.131Z,54.61
2023-02-27T14:05:59.394Z,54.80
2023-02-27T14:08:28.923Z,54.61
2023-02-27T14:11:02.720Z,55.72
2023-02-27T14:14:06.410Z,57.31
2023-02-27T14:16:59.764Z,54.63
2023-02-27T14:19:49.181Z,54.37
2023-02-27T14:22:37.660Z,53.41
2023-02-27T14:25:19.627Z,51.58
2023-02-27T14:27:54.659Z,50.85
2023-02-27T14:30:31.091Z,51.88
2023-02-27T14:33:02.460Z,51.43
2023-02-27T14:35:31.115Z,50.03
2023-02-27T14:38:04.807Z,49.08
2023-02-27T14:40:39.066Z,49.25
2023-02-27T14:43:15.942Z,49.51
2023-02-27T14:45:43.584Z,49.15
2023-02-27T14:48:11.794Z,50.53
2023-02-27T14:50:41.672Z,51.27
2023-02-27T14:53:23.787Z,51.24
2023-02-27T14:55:55.568Z,49.95
2023-02-27T14:58:25.350Z,48.96
2023-02-27T15:01:03.154Z,48.57
2023-02-27T15:03:36.521Z,49.33
2023-02-27T15:06:13.624Z,49.59
2023-02-27T15:08:43.467Z,50.06
2023-02-27T15:11:15.614Z,49.40
2023-02-27T15:13:45.729Z,48.39
2023-02-27T15:16:31.940Z,47.90
2023-02-27T15:19:01.934Z,48.74
2023-02-27T15:21:34.651Z,49.67
2023-02-27T15:24:04.100Z,50.07
2023-02-27T15:26:36.160Z,51.53
2023-02-27T15:29:06.279Z,50.86
2023-02-27T15:31:34.294Z,52.85
2023-02-27T15:34:03.740Z,51.21
2023-02-27T15:36:34.179Z,50.47
2023-02-27T15:39:16.387Z,51.64
2023-02-27T15:41:46.667Z,54.16
2023-02-27T15:44:17.018Z,53.20
2023-02-27T15:46:46.272Z,55.69
2023-02-27T15:49:18.772Z,53.43
2023-02-27T15:51:49.254Z,53.82
2023-02-27T15:54:16.917Z,54.97
2023-02-27T15:56:45.260Z,54.35
2023-02-27T15:59:18.789Z,55.66
2023-02-27T16:01:47.027Z,54.03
2023-02-27T16:04:23.809Z,54.18
2023-02-27T16:06:59.144Z,55.20
2023-02-27T16:09:31.202Z,55.64
2023-02-27T16:12:13.297Z,55.35
2023-02-27T16:14:45.855Z,54.86
2023-02-27T16:17:29.321Z,56.10
2023-02-27T16:20:00.746Z,55.81
2023-02-27T16:22:30.380Z,58.19
2023-02-27T16:25:09.518Z,56.86
2023-02-27T16:27:37.281Z,59.34
2023-02-27T16:30:12.733Z,58.49
2023-02-27T16:32:43.979Z,57.78
2023-02-27T16:35:19.224Z,57.32
2023-02-27T16:37:47.946Z,59.18
2023-02-27T16:40:18.092Z,61.25
2023-02-27T16:42:47.111Z,61.32
2023-02-27T16:45:18.293Z,59.92
2023-02-27T16:47:48.816Z,62.01
2023-02-27T16:50:21.809Z,61.44
2023-02-27T16:52:49.488Z,60.72
2023-02-27T16:55:17.327Z,60.14
2023-02-27T16:57:45.023Z,59.53
2023-02-27T17:00:17.013Z,59.41
2023-02-27T17:02:44.719Z,59.03
2023-02-27T17:05:12.344Z,61.28
2023-02-27T17:07:39.967Z,61.40
2023-02-27T17:10:08.022Z,62.62
2023-02-27T17:12:36.676Z,61.75
2023-02-27T17:15:04.516Z,61.90
2023-02-27T17:17:33.428Z,61.12
2023-02-27T17:20:01.856Z,62.69
2023-02-27T17:22:29.439Z,62.91
2023-02-27T17:24:57.030Z,61.61
2023-02-27T17:27:24.648Z,61.15
2023-02-27T17:29:52.438Z,61.86
2023-02-27T17:32:20.114Z,60.87
2023-02-27T17:34:49.174Z,61.81
2023-02-27T17:37:16.774Z,66.77
2023-02-27T17:39:44.350Z,68.41
2023-02-27T17:42:16.419Z,68.03
2023-02-27T17:44:45.131Z,66.15
2023-02-27T17:47:12.967Z,67.05
2023-02-27T17:49:40.611Z,68.03
2023-02-27T17:52:10.005Z,68.87
2023-02-27T17:54:38.015Z,68.64
2023-02-27T17:57:06.690Z,65.35
2023-02-27T17:59:34.698Z,65.31
2023-02-27T18:02:02.288Z,63.56
2023-02-27T18:04:29.973Z,63.74
2023-02-27T18:06:57.788Z,65.54
2023-02-27T18:09:26.793Z,66.94
2023-02-27T18:11:54.426Z,68.45
2023-02-27T18:14:22.278Z,67.45
2023-02-27T18:16:50.098Z,67.75
2023-02-27T18:19:18.286Z,66.57
2023-02-27T18:21:47.037Z,66.46
2023-02-27T18:24:16.934Z,67.23
2023-02-27T18:26:45.928Z,65.97
2023-02-27T18:29:16.116Z,66.22
2023-02-27T18:31:45.494Z,65.87
2023-02-27T18:34:13.912Z,65.17
2023-02-27T18:36:41.590Z,66.14
2023-02-27T18:39:09.221Z,67.50
2023-02-27T18:41:37.080Z,65.67
2023-02-27T18:44:07.612Z,66.85
2023-02-27T18:46:36.110Z,67.67
2023-02-27T18:49:03.995Z,68.00
2023-02-27T18:51:31.720Z,68.48
2023-02-27T18:54:00.693Z,67.88
2023-02-27T18:56:32.766Z,66.49
2023-02-27T18:59:05.026Z,67.96
2023-02-27T19:01:36.379Z,67.34
2023-02-27T19:04:05.885Z,68.56
2023-02-27T19:06:34.785Z,66.81
2023-02-27T19:09:02.443Z,67.07
2023-02-27T19:11:33.124Z,66.79
2023-02-27T19:14:01.535Z,64.67
2023-02-27T19:16:29.589Z,64.35
2023-02-27T19:18:59.828Z,66.44
2023-02-27T19:21:28.367Z,67.20
2023-02-27T19:23:56.297Z,67.54
2023-02-27T19:26:25.206Z,68.83
2023-02-27T19:28:53.750Z,67.27
2023-02-27T19:31:23.373Z,66.06
2023-02-27T19:33:50.986Z,66.41
2023-02-27T19:36:21.683Z,65.93
2023-02-27T19:38:49.652Z,65.80
2023-02-27T19:41:18.378Z,67.75
2023-02-27T19:43:47.229Z,65.50
2023-02-27T19:46:17.355Z,65.22
2023-02-27T19:48:45.836Z,65.67
2023-02-27T19:51:15.410Z,66.76
2023-02-27T19:53:48.255Z,70.67
2023-02-27T19:56:18.665Z,68.97
2023-02-27T19:58:47.693Z,71.05
2023-02-27T20:01:21.502Z,69.46
2023-02-27T20:03:49.197Z,67.22
2023-02-27T20:06:18.625Z,68.90
2023-02-27T20:08:47.604Z,67.82
2023-02-27T20:11:17.325Z,68.09
2023-02-27T20:13:44.992Z,69.28
2023-02-27T20:16:14.782Z,69.53
2023-02-27T20:18:43.602Z,69.01
2023-02-27T20:21:13.758Z,71.55
2023-02-27T20:23:43.263Z,71.87
2023-02-27T20:26:18.044Z,72.60
2023-02-27T20:28:46.416Z,71.21
2023-02-27T20:31:15.727Z,71.08
2023-02-27T20:33:43.678Z,70.91
2023-02-27T20:36:12.749Z,69.58
2023-02-27T20:38:41.143Z,69.12
2023-02-27T20:41:10.385Z,69.43
2023-02-27T20:43:39.833Z,68.36
2023-02-27T20:46:10.277Z,68.65
2023-02-27T20:48:38.310Z,68.11
2023-02-27T20:51:08.023Z,69.28
2023-02-27T20:53:36.995Z,69.72
2023-02-27T20:56:05.931Z,70.85
2023-02-27T20:58:34.272Z,72.11
2023-02-27T21:01:04.279Z,70.83
2023-02-27T21:03:38.414Z,71.83
2023-02-27T21:06:07.393Z,71.02
2023-02-27T21:08:36.455Z,70.18
2023-02-27T21:11:08.410Z,70.99
2023-02-27T21:13:36.971Z,69.03
2023-02-27T21:16:07.565Z,71.28
2023-02-27T21:18:35.223Z,72.31
2023-02-27T21:21:04.443Z,71.27
2023-02-27T21:23:32.179Z,70.53
2023-02-27T21:25:59.800Z,70.41
2023-02-27T21:28:27.576Z,70.32
2023-02-27T21:30:55.164Z,70.58
2023-02-27T21:33:24.289Z,71.54
2023-02-27T21:35:51.911Z,71.54
2023-02-27T21:38:19.498Z,71.93
2023-02-27T21:40:47.083Z,71.89
2023-02-27T21:43:14.654Z,71.95
2023-02-27T21:45:47.457Z,73.49
2023-02-27T21:48:16.097Z,72.26
2023-02-27T21:50:45.094Z,71.59
2023-02-27T21:53:12.667Z,70.19
2023-02-27T21:55:40.277Z,71.41
2023-02-27T21:58:10.427Z,70.50
2023-02-27T22:00:38.067Z,69.63
2023-02-27T22:03:06.203Z,70.83
2023-02-27T22:05:33.797Z,71.48
2023-02-27T22:08:02.777Z,71.69
2023-02-27T22:10:30.412Z,71.14
2023-02-27T22:12:58.015Z,71.16
2023-02-27T22:15:25.654Z,70.76
2023-02-27T22:17:54.674Z,72.07
2023-02-27T22:20:22.263Z,71.96
2023-02-27T22:22:49.912Z,70.93
2023-02-27T22:25:19.064Z,71.38
2023-02-27T22:27:46.699Z,70.25
2023-02-27T22:30:14.971Z,70.66
2023-02-27T22:32:42.574Z,72.75
2023-02-27T22:35:10.478Z,70.59
2023-02-27T22:37:38.072Z,71.09
2023-02-27T22:40:06.475Z,71.76
2023-02-27T22:42:35.427Z,72.19
2023-02-27T22:45:03.027Z,70.75
2023-02-27T22:47:30.648Z,70.25
2023-02-27T22:49:58.516Z,69.99
2023-02-27T22:52:26.174Z,70.02
2023-02-27T22:54:53.925Z,70.62
2023-02-27T22:57:22.828Z,70.98
2023-02-27T22:59:52.089Z,70.67
2023-02-27T23:02:19.897Z,70.77
2023-02-27T23:04:47.511Z,70.65
2023-02-27T23:07:15.096Z,70.66
2023-02-27T23:09:43.802Z,71.88
2023-02-27T23:12:11.448Z,71.89
2023-02-27T23:14:39.241Z,72.15
2023-02-27T23:17:08.229Z,70.43
2023-02-27T23:19:36.466Z,70.78
2023-02-27T23:22:04.075Z,70.28
2023-02-27T23:24:31.706Z,71.77
2023-02-27T23:27:00.160Z,71.61
2023-02-27T23:29:27.756Z,71.22
2023-02-27T23:31:55.454Z,72.63
2023-02-27T23:34:24.516Z,72.55
2023-02-27T23:36:52.120Z,71.13
2023-02-27T23:39:20.561Z,72.96
2023-02-27T23:41:48.226Z,73.58
2023-02-27T23:44:15.908Z,71.05
2023-02-27T23:46:43.635Z,70.40
2023-02-27T23:49:12.205Z,72.88
2023-02-27T23:51:41.208Z,72.52
2023-02-27T23:54:08.830Z,73.21
2023-02-27T23:56:36.453Z,73.37
2023-02-27T23:59:06.913Z,73.49
